National City, CA (91950)

2:43 AM PDT on September 17, 2014 (GMT -0700)
Bonita Rd | Change Station
CLOSE
Current Station
Personal Weather Station
Location: Chula Vista, CA
Elevation: 85 ft
Nearby Weather Stations
Active Advisory: Beach Hazard Statement Active Notice: Record Report

Elev 85 ft 32.65 °N, 117.05 °W | Updated 6 minutes ago

Clear
Clear
75.4 °F
Feels Like 76 °F
N
0.0
Wind Variable Wind from WNW

Today
High -- | Low -- °F
--% Chance of Precip.
Yesterday
High -- | Low -- °F
Precip. -- in
6:33 AM 6:51 PM
Last Quarter, 37% visible
Pressure 29.71 in
Visibility 5.0 miles
Clouds Clear
Heat Index 76 °F
Dew Point 70 °F
Humidity 82%
Rainfall 0.00 in
Snow Depth 1 in , 0 in , 0 in
UV 0 out of 12
Pollen 5.60 out of 12
Ozone Good
PM2.5 Moderate
Flu Activity Not available.
METAR KNRS 170856Z AUTO 24004KT 5SM BR CLR 23/21 A2971 RMK AO2 SLP061 T02280206 58008

More Conditions Fewer Conditions

Pressure 29.71 in
Visibility 5.0 miles
Clouds Clear
Heat Index 76 °F
Dew Point 70 °F
Humidity 82%
Rainfall 0.00 in
Snow Depth 1 in , 0 in , 0 in
UV 0 out of 12
Pollen 5.60 out of 12
Ozone Good
PM2.5 Moderate
Flu Activity Not available.
METAR KNRS 170856Z AUTO 24004KT 5SM BR CLR 23/21 A2971 RMK AO2 SLP061 T02280206 58008

More Conditions Fewer Conditions

10-Day Weather Forecast

Almanac

Astronomy

Sep. 17, 2014 Rise Set
Actual Time 6:33 AM PDT 6:51 PM PDT
Civil Twilight 6:08 AM PDT 7:16 PM PDT
Nautical Twilight 5:39 AM PDT 7:45 PM PDT
Astronomical Twilight 5:10 AM PDT 8:14 PM PDT
Moon 12:51 AM PDT 2:51 PM PDT
Length of Visible Light 13h 07m
Length of Day
12h 18m
Tomorrow will be 1m 59s shorter.
Last Quarter, 37% of the Moon is Illuminated
Today
Last Quarter
Sep 24
New
Oct 1
First Quarter
Oct 8
Full
Oct 15
Last Quarter

Today's Extremes

State Highs State Lows

Community

WunderPhotos

Upload Photos

1,753,991 photos uploaded!

Nearby

Air Quality

  Air Quality AQ Index Pollutant
Yesterday Moderate
PM2.5
Yesterday Good
OZONE
Current Moderate
PM2.5
Current Good
OZONE
Tuesday Moderate
PM2.5
Tuesday Good
OZONE
Wednesday Moderate
PM2.5
Wednesday Moderate
OZONE

Snow Depth

Station Depth Elevation
Spratt Creek 1 in 6200 ft
Rubicon #2 0 in 7500 ft
Monitor Pass 0 in 8350 ft
Leavitt Meadows 1 in 7200 ft
Leavitt Lake 1 in 9400 ft

Earthquake Activity

City Distance Mag. Time & Date
La Quinta, California 69 miles 2.7 8:59 PM PDT
2014-09-15
San Jacinto, California 78 miles 3.0 3:16 PM PDT
2014-09-14
Minimum magnitude displayed is 2.5.

Coastal Water Temperatures

Place Temperature
La Jolla, CA 71.1 °F
San Diego, CA 77.0 °F

Nearby Weather Stations